Time;durP1;ratioP1;P1;durP2;ratioP2;P2;SDS_P1;SDS_P2;PMS_P1;PMS_P2;Temp;Humidity;BMP_temperature;BMP_pressure;BME280_temperature;BME280_humidity;BME280_pressure;Samples;Min_cycle;Max_cycle;Signal;HPM_P1;HPM_P2
2023/04/01 00:00:58;;;;;;;41.45;14.57;;;9.70;99.90;;;;;;5030668;28;20017;-68
2023/04/01 00:03:25;;;;;;;43.63;14.55;;;9.70;99.90;;;;;;5030306;28;20025;-69
2023/04/01 00:05:50;;;;;;;38.28;14.77;;;9.70;99.90;;;;;;5030429;28;20045;-69
2023/04/01 00:08:16;;;;;;;36.83;13.82;;;9.70;99.90;;;;;;5029655;28;20539;-69
2023/04/01 00:10:42;;;;;;;33.70;13.73;;;9.70;99.90;;;;;;5030245;28;20028;-68
2023/04/01 00:13:09;;;;;;;36.42;14.18;;;9.70;99.90;;;;;;5030378;28;20069;-69
2023/04/01 00:15:34;;;;;;;39.03;15.10;;;9.70;99.90;;;;;;5030386;28;20021;-68
2023/04/01 00:18:00;;;;;;;42.95;15.85;;;9.70;99.90;;;;;;5029706;28;20033;-68
2023/04/01 00:20:27;;;;;;;33.13;13.60;;;9.70;99.90;;;;;;5029402;28;20371;-69
2023/04/01 00:22:52;;;;;;;34.40;14.35;;;9.70;99.90;;;;;;5030283;28;20041;-70
2023/04/01 00:25:18;;;;;;;36.22;14.98;;;9.70;99.90;;;;;;5030805;28;20033;-69
2023/04/01 00:27:44;;;;;;;37.58;14.55;;;9.70;99.90;;;;;;5030507;28;20041;-68
2023/04/01 00:30:10;;;;;;;39.65;15.90;;;9.70;99.90;;;;;;5028910;28;20041;-69
2023/04/01 00:32:36;;;;;;;44.40;15.52;;;9.70;99.90;;;;;;5027611;28;20021;-69
2023/04/01 00:35:03;;;;;;;45.35;15.35;;;9.70;99.90;;;;;;5029965;28;20687;-69
2023/04/01 00:37:29;;;;;;;38.95;16.65;;;9.70;99.90;;;;;;5034537;28;20044;-68
2023/04/01 00:39:56;;;;;;;37.65;15.77;;;9.80;99.90;;;;;;5034040;28;20121;-69
2023/04/01 00:42:21;;;;;;;36.88;15.93;;;9.70;99.90;;;;;;5034354;28;20033;-70
2023/04/01 00:44:52;;;;;;;39.00;16.20;;;9.80;99.90;;;;;;5034105;28;20042;-70
2023/04/01 00:47:19;;;;;;;39.50;16.13;;;9.80;99.90;;;;;;5032357;28;20026;-70
2023/04/01 00:49:48;;;;;;;41.40;16.25;;;9.70;99.90;;;;;;5033801;28;20029;-70
2023/04/01 00:52:17;;;;;;;43.42;16.40;;;9.70;99.90;;;;;;5034207;28;20475;-70
2023/04/01 00:54:46;;;;;;;42.55;16.65;;;9.70;99.90;;;;;;5034013;28;20026;-70
2023/04/01 00:57:18;;;;;;;45.72;16.23;;;9.70;99.90;;;;;;5034113;28;20025;-69
2023/04/01 00:59:47;;;;;;;45.50;17.35;;;9.70;99.90;;;;;;5034224;28;20038;-69
2023/04/01 01:02:15;;;;;;;41.95;17.20;;;9.80;99.90;;;;;;5032442;28;20021;-68
2023/04/01 01:04:41;;;;;;;47.08;17.17;;;9.70;99.90;;;;;;5033276;28;20069;-68
2023/04/01 01:07:24;;;;;;;40.83;16.17;;;9.70;99.90;;;;;;5032676;28;20033;-67
2023/04/01 01:10:15;;;;;;;63.60;18.98;;;9.70;99.90;;;;;;5033592;28;20054;-69
2023/04/01 01:12:52;;;;;;;53.92;18.80;;;9.70;99.90;;;;;;5033779;28;20048;-69
2023/04/01 01:15:46;;;;;;;43.20;17.27;;;9.70;99.90;;;;;;5033739;28;20018;-69
2023/04/01 01:18:52;;;;;;;38.70;16.40;;;9.70;99.90;;;;;;5033176;28;20061;-68
2023/04/01 01:21:52;;;;;;;40.75;16.27;;;9.70;99.90;;;;;;5031990;28;20060;-70
2023/04/01 01:24:49;;;;;;;38.88;16.00;;;9.70;99.90;;;;;;5029559;28;20041;-68
2023/04/01 01:27:19;;;;;;;52.92;18.88;;;9.70;99.90;;;;;;5033067;28;20049;-69
2023/04/01 01:30:07;;;;;;;37.45;16.05;;;9.70;99.90;;;;;;5033345;28;20018;-70
2023/04/01 01:33:07;;;;;;;42.17;17.90;;;9.70;99.90;;;;;;5032589;28;20084;-68
2023/04/01 01:35:34;;;;;;;39.85;15.73;;;9.70;99.90;;;;;;5021584;28;20034;-68
2023/04/01 01:38:08;;;;;;;41.25;17.25;;;9.70;99.90;;;;;;5033045;28;20052;-69
2023/04/01 01:40:36;;;;;;;37.78;15.77;;;9.70;99.90;;;;;;5033480;28;20026;-68
2023/04/01 01:43:07;;;;;;;40.33;17.77;;;9.70;99.90;;;;;;5032338;28;20029;-69
2023/04/01 01:45:35;;;;;;;45.08;18.38;;;9.70;99.90;;;;;;5032150;28;20049;-70
2023/04/01 01:48:04;;;;;;;40.15;16.42;;;9.70;99.90;;;;;;5031220;28;20383;-69
2023/04/01 01:50:31;;;;;;;43.55;17.63;;;9.70;99.90;;;;;;5032396;28;20033;-68
2023/04/01 01:53:10;;;;;;;40.67;16.73;;;9.70;99.90;;;;;;5033083;28;20033;-69
2023/04/01 01:55:42;;;;;;;42.08;17.58;;;9.70;99.90;;;;;;5032220;28;20034;-68
2023/04/01 01:58:17;;;;;;;44.78;16.92;;;9.70;99.90;;;;;;5032752;28;20037;-70
2023/04/01 02:00:49;;;;;;;38.72;16.80;;;9.70;99.90;;;;;;5033049;28;20056;-69
2023/04/01 02:03:16;;;;;;;42.38;17.10;;;9.70;99.90;;;;;;5032609;28;20033;-68
2023/04/01 02:05:42;;;;;;;46.10;16.90;;;9.70;99.90;;;;;;5031952;28;20052;-69
2023/04/01 02:08:24;;;;;;;42.92;16.52;;;9.70;99.90;;;;;;5031230;28;20065;-68
2023/04/01 02:10:58;;;;;;;35.35;15.73;;;9.70;99.90;;;;;;5032230;28;20026;-69
2023/04/01 02:13:48;;;;;;;43.13;16.65;;;9.70;99.90;;;;;;5032037;28;20085;-68
2023/04/01 02:16:20;;;;;;;43.38;16.15;;;9.70;99.90;;;;;;5023605;28;20045;-68
2023/04/01 02:18:50;;;;;;;42.30;17.70;;;9.60;99.90;;;;;;5031713;28;20032;-69
2023/04/01 02:21:18;;;;;;;43.53;16.67;;;9.70;99.90;;;;;;5032465;28;20028;-69
2023/04/01 02:23:45;;;;;;;36.03;15.45;;;9.70;99.90;;;;;;5030195;28;20041;-69
2023/04/01 02:26:12;;;;;;;45.25;16.08;;;9.70;99.90;;;;;;5032266;28;20509;-69
2023/04/01 02:28:40;;;;;;;42.20;16.40;;;9.70;99.90;;;;;;5032118;28;20018;-67
2023/04/01 02:31:08;;;;;;;38.00;15.07;;;9.70;99.90;;;;;;5032117;28;20021;-68
2023/04/01 02:33:34;;;;;;;43.88;16.15;;;9.70;99.90;;;;;;5031778;28;20109;-67
2023/04/01 02:35:59;;;;;;;41.63;16.17;;;9.70;99.90;;;;;;5031514;28;20049;-69
2023/04/01 02:38:26;;;;;;;37.75;14.57;;;9.70;99.90;;;;;;5033828;28;20034;-67
2023/04/01 02:40:59;;;;;;;41.00;16.27;;;9.60;99.90;;;;;;5032560;28;20026;-69
2023/04/01 02:43:24;;;;;;;34.70;16.00;;;9.60;99.90;;;;;;5032585;28;20244;-69
2023/04/01 02:45:50;;;;;;;42.97;16.55;;;9.70;99.90;;;;;;5033666;28;20030;-69
2023/04/01 02:48:15;;;;;;;45.75;16.90;;;9.70;99.90;;;;;;5032173;28;20027;-68
2023/04/01 02:50:41;;;;;;;34.78;15.48;;;9.70;99.90;;;;;;5033483;28;21034;-67
2023/04/01 02:53:07;;;;;;;40.35;17.27;;;9.70;99.90;;;;;;5033177;28;20033;-68
2023/04/01 02:55:34;;;;;;;43.25;16.58;;;9.70;99.90;;;;;;5033476;28;20023;-67
2023/04/01 02:57:59;;;;;;;42.40;17.30;;;9.70;99.90;;;;;;5033452;28;20037;-69
2023/04/01 03:00:26;;;;;;;34.75;15.63;;;9.70;99.90;;;;;;5033014;28;20022;-69
2023/04/01 03:02:52;;;;;;;36.15;15.63;;;9.70;99.90;;;;;;5033007;28;20030;-69
2023/04/01 03:05:18;;;;;;;36.20;15.52;;;9.70;99.90;;;;;;5033129;28;20428;-70
2023/04/01 03:07:44;;;;;;;41.78;16.75;;;9.70;99.90;;;;;;5033307;28;20037;-70
2023/04/01 03:10:10;;;;;;;39.42;16.27;;;9.70;99.90;;;;;;5033089;28;20026;-69
2023/04/01 03:12:36;;;;;;;40.35;16.90;;;9.70;99.90;;;;;;5032683;28;20061;-68
2023/04/01 03:15:01;;;;;;;40.30;16.38;;;9.70;99.90;;;;;;5032913;28;20029;-68
2023/04/01 03:17:27;;;;;;;36.03;16.65;;;9.70;99.90;;;;;;5033127;28;20033;-69
2023/04/01 03:19:52;;;;;;;42.33;15.80;;;9.70;99.90;;;;;;5032878;28;20072;-71
2023/04/01 03:22:20;;;;;;;40.97;16.98;;;9.70;99.90;;;;;;5031707;28;20045;-69
2023/04/01 03:24:47;;;;;;;42.42;17.55;;;9.70;99.90;;;;;;5032979;28;20029;-68
2023/04/01 03:27:12;;;;;;;35.45;16.17;;;9.70;99.90;;;;;;5032980;28;20041;-69
2023/04/01 03:29:38;;;;;;;33.85;14.38;;;9.70;99.90;;;;;;5032655;28;20029;-68
2023/04/01 03:32:04;;;;;;;34.55;15.40;;;9.70;99.90;;;;;;5032454;28;20040;-70
2023/04/01 03:34:30;;;;;;;34.17;15.60;;;9.70;99.90;;;;;;5032421;28;20085;-69
2023/04/01 03:36:56;;;;;;;35.20;14.25;;;9.70;99.90;;;;;;5031331;28;20030;-69
2023/04/01 03:39:21;;;;;;;37.85;16.13;;;9.70;99.90;;;;;;5030550;28;20050;-70
2023/04/01 03:41:47;;;;;;;41.45;16.40;;;9.70;99.90;;;;;;5032668;28;20572;-70
2023/04/01 03:44:13;;;;;;;31.25;15.07;;;9.70;99.90;;;;;;5031209;28;20097;-70
2023/04/01 03:46:39;;;;;;;39.53;16.27;;;9.60;99.90;;;;;;5032441;28;20040;-68
2023/04/01 03:49:11;;;;;;;41.35;16.30;;;9.70;99.90;;;;;;5032177;28;20026;-69
2023/04/01 03:51:43;;;;;;;41.15;15.98;;;9.70;99.90;;;;;;5031892;28;20032;-68
2023/04/01 03:54:10;;;;;;;38.78;16.55;;;9.70;99.90;;;;;;5032648;28;20025;-70
2023/04/01 03:56:42;;;;;;;40.03;16.00;;;9.70;99.90;;;;;;5032447;28;20020;-69
2023/04/01 03:59:08;;;;;;;39.30;16.02;;;9.70;99.90;;;;;;5031179;28;20030;-69
2023/04/01 04:01:34;;;;;;;41.17;16.92;;;9.70;99.90;;;;;;5030297;28;20018;-70
2023/04/01 04:04:00;;;;;;;36.63;16.20;;;9.70;99.90;;;;;;5032155;28;20217;-69
2023/04/01 04:06:26;;;;;;;40.05;16.65;;;9.70;99.90;;;;;;5031451;28;20026;-68
2023/04/01 04:08:52;;;;;;;36.05;14.65;;;9.70;99.90;;;;;;5031796;28;20045;-70
2023/04/01 04:11:19;;;;;;;38.55;16.08;;;9.80;99.90;;;;;;5031865;28;20029;-69
2023/04/01 04:13:44;;;;;;;32.65;14.30;;;9.70;99.90;;;;;;5032404;28;20037;-68
2023/04/01 04:16:11;;;;;;;34.83;14.90;;;9.70;99.90;;;;;;5031982;28;20049;-69
2023/04/01 04:18:37;;;;;;;31.80;13.98;;;9.70;99.90;;;;;;5030698;28;20455;-68
2023/04/01 04:21:03;;;;;;;35.90;15.13;;;9.70;99.90;;;;;;5032146;28;20076;-69
2023/04/01 04:23:30;;;;;;;46.15;15.77;;;9.70;99.90;;;;;;5032194;28;20092;-69
2023/04/01 04:26:04;;;;;;;32.72;14.52;;;9.70;99.90;;;;;;5031521;28;20018;-70
2023/04/01 04:28:31;;;;;;;32.47;14.55;;;9.70;99.90;;;;;;5030335;28;20042;-70
2023/04/01 04:30:57;;;;;;;36.30;14.68;;;9.70;99.90;;;;;;5032056;28;20077;-69
2023/04/01 04:33:23;;;;;;;35.17;15.05;;;9.60;99.90;;;;;;5032111;28;20033;-71
2023/04/01 04:35:50;;;;;;;30.75;13.55;;;9.70;99.90;;;;;;5032435;28;20033;-67
2023/04/01 04:38:15;;;;;;;36.08;13.75;;;9.70;99.90;;;;;;5031805;28;20026;-68
2023/04/01 04:40:44;;;;;;;38.45;15.18;;;9.70;99.90;;;;;;5031773;28;20055;-67
2023/04/01 04:43:14;;;;;;;38.45;14.88;;;9.70;99.90;;;;;;5031647;28;20749;-68
2023/04/01 04:45:40;;;;;;;35.45;15.27;;;9.60;99.90;;;;;;5031279;28;20049;-69
2023/04/01 04:48:10;;;;;;;33.15;13.55;;;9.60;99.90;;;;;;5031841;28;20022;-69
2023/04/01 04:50:36;;;;;;;31.33;13.75;;;9.60;99.90;;;;;;5031997;28;20021;-68
2023/04/01 04:53:02;;;;;;;32.03;13.27;;;9.60;99.90;;;;;;5029154;28;20082;-69
2023/04/01 04:55:28;;;;;;;33.88;13.70;;;9.60;99.90;;;;;;5029105;28;20022;-67
2023/04/01 04:57:53;;;;;;;33.15;13.02;;;9.60;99.90;;;;;;5024650;28;20049;-68
2023/04/01 05:00:19;;;;;;;33.05;14.40;;;9.60;99.90;;;;;;5031570;28;20026;-69
2023/04/01 05:02:45;;;;;;;33.05;13.13;;;9.60;99.90;;;;;;5031798;28;20036;-67
2023/04/01 05:05:10;;;;;;;35.25;14.55;;;9.60;99.90;;;;;;5031481;28;20042;-69
2023/04/01 05:07:36;;;;;;;30.75;13.85;;;9.60;99.90;;;;;;5031591;28;20046;-70
2023/04/01 05:10:02;;;;;;;31.40;13.90;;;9.60;99.90;;;;;;5031476;28;20022;-68
2023/04/01 05:12:32;;;;;;;28.92;12.95;;;9.60;99.90;;;;;;5029710;28;20042;-69
2023/04/01 05:14:58;;;;;;;37.70;13.85;;;9.60;99.90;;;;;;5029974;28;20479;-69
2023/04/01 05:17:23;;;;;;;37.80;13.57;;;9.60;99.90;;;;;;5030288;28;20044;-67
2023/04/01 05:19:49;;;;;;;30.58;13.20;;;9.60;99.90;;;;;;5031797;28;20025;-68
2023/04/01 05:22:17;;;;;;;30.25;12.82;;;9.60;99.90;;;;;;5031121;28;20085;-69
2023/04/01 05:24:42;;;;;;;35.42;13.25;;;9.60;99.90;;;;;;5034766;28;20038;-67
2023/04/01 05:27:08;;;;;;;38.38;13.43;;;9.60;99.90;;;;;;5033066;28;20037;-69
2023/04/01 05:29:34;;;;;;;29.85;13.38;;;9.50;99.90;;;;;;5033114;28;20075;-68
2023/04/01 05:32:00;;;;;;;34.53;12.98;;;9.60;99.90;;;;;;5032456;28;20447;-69
2023/04/01 05:34:25;;;;;;;37.33;12.75;;;9.60;99.90;;;;;;5034484;28;20029;-69
2023/04/01 05:36:51;;;;;;;30.73;12.35;;;9.50;99.90;;;;;;5034983;28;20021;-69
2023/04/01 05:39:18;;;;;;;28.45;11.43;;;9.60;99.90;;;;;;5034770;28;20030;-71
2023/04/01 05:41:43;;;;;;;29.42;11.55;;;9.60;99.90;;;;;;5034283;28;20046;-68
2023/04/01 05:44:11;;;;;;;26.13;12.20;;;9.60;99.90;;;;;;5034757;28;20048;-69
2023/04/01 05:46:37;;;;;;;31.15;11.65;;;9.60;99.90;;;;;;5031623;28;20026;-70
2023/04/01 05:49:03;;;;;;;26.70;11.75;;;9.50;99.90;;;;;;5030959;28;20051;-69
2023/04/01 05:51:28;;;;;;;27.63;11.45;;;9.60;99.90;;;;;;5032105;28;20057;-67
2023/04/01 05:53:54;;;;;;;37.25;12.05;;;9.60;99.90;;;;;;5031186;28;20038;-69
2023/04/01 05:56:19;;;;;;;29.20;11.20;;;9.60;99.90;;;;;;5033648;28;20028;-69
2023/04/01 05:58:51;;;;;;;25.13;11.63;;;9.50;99.90;;;;;;5034689;28;20028;-69
2023/04/01 06:01:18;;;;;;;24.70;10.80;;;9.60;99.90;;;;;;5034786;28;20036;-70
2023/04/01 06:03:44;;;;;;;23.83;11.18;;;9.60;99.90;;;;;;5034419;28;20030;-71
2023/04/01 06:06:26;;;;;;;23.77;11.02;;;9.70;99.90;;;;;;5033835;28;20133;-70
2023/04/01 06:08:55;;;;;;;22.88;10.98;;;9.70;99.90;;;;;;5034172;28;20041;-71
2023/04/01 06:11:51;;;;;;;23.33;10.88;;;9.70;99.90;;;;;;5033513;28;20053;-70
2023/04/01 06:14:20;;;;;;;22.65;10.60;;;9.70;99.90;;;;;;5033593;28;20034;-68
2023/04/01 06:16:57;;;;;;;18.27;9.75;;;9.70;99.90;;;;;;5031101;28;20085;-68
2023/04/01 06:19:39;;;;;;;21.77;10.05;;;9.80;99.90;;;;;;5031626;28;20445;-69
2023/04/01 06:22:07;;;;;;;17.83;9.57;;;9.80;99.90;;;;;;5033213;28;20053;-69
2023/04/01 06:24:54;;;;;;;25.48;10.05;;;9.80;99.90;;;;;;5033873;28;20029;-67
2023/04/01 06:27:47;;;;;;;21.70;9.32;;;9.80;99.90;;;;;;5034159;28;20025;-69
2023/04/01 06:30:28;;;;;;;17.60;9.52;;;9.80;99.90;;;;;;5033787;28;20026;-71
2023/04/01 06:33:08;;;;;;;20.40;9.82;;;9.90;99.90;;;;;;5032611;28;20030;-69
2023/04/01 06:36:03;;;;;;;21.25;9.27;;;9.90;99.90;;;;;;5032035;28;20030;-68
2023/04/01 06:38:29;;;;;;;;;;;10.00;99.90;;;;;;5033126;28;20033;-69
2023/04/01 06:41:34;;;;;;;16.35;8.05;;;10.10;99.90;;;;;;5032220;28;19921;-71
2023/04/01 06:44:19;;;;;;;20.50;8.15;;;10.10;99.90;;;;;;5032781;28;20045;-69
2023/04/01 06:46:59;;;;;;;18.77;8.20;;;10.20;99.90;;;;;;5033711;28;20017;-68
2023/04/01 06:49:49;;;;;;;12.65;6.78;;;10.20;99.90;;;;;;5033604;28;20017;-70
2023/04/01 06:52:30;;;;;;;10.95;6.60;;;10.20;99.90;;;;;;5033783;28;20029;-70
2023/04/01 06:55:01;;;;;;;13.00;7.50;;;10.20;99.90;;;;;;5033550;28;20025;-69
2023/04/01 06:57:43;;;;;;;10.23;6.97;;;10.20;99.90;;;;;;5033575;28;20013;-70
2023/04/01 07:00:19;;;;;;;15.63;7.32;;;10.30;99.90;;;;;;5031955;28;20028;-68
2023/04/01 07:03:05;;;;;;;11.18;7.10;;;10.30;99.90;;;;;;5032789;28;20374;-68
2023/04/01 07:05:32;;;;;;;15.85;7.00;;;10.30;99.90;;;;;;5032967;28;20093;-69
2023/04/01 07:08:04;;;;;;;15.15;6.55;;;10.40;99.90;;;;;;5032694;28;20042;-69
2023/04/01 07:10:52;;;;;;;14.07;6.25;;;10.40;99.90;;;;;;5032679;28;20026;-69
2023/04/01 07:13:35;;;;;;;12.65;6.05;;;10.30;99.90;;;;;;5032427;28;20021;-71
2023/04/01 07:16:32;;;;;;;16.33;6.47;;;10.40;99.90;;;;;;5033369;28;20064;-69
2023/04/01 07:19:31;;;;;;;12.48;6.55;;;10.40;99.90;;;;;;5033173;28;20033;-69
2023/04/01 07:22:06;;;;;;;13.88;6.25;;;10.40;99.90;;;;;;4997445;28;20048;-69
2023/04/01 07:24:38;;;;;;;11.73;6.72;;;10.50;99.90;;;;;;5032749;28;20033;-70
2023/04/01 07:27:10;;;;;;;12.68;6.35;;;10.40;99.90;;;;;;5032705;28;20048;-70
2023/04/01 07:29:35;;;;;;;11.20;5.90;;;10.50;99.90;;;;;;5032611;28;20014;-68
2023/04/01 07:32:19;;;;;;;9.77;5.75;;;10.50;99.90;;;;;;5032690;28;20041;-69
2023/04/01 07:35:04;;;;;;;9.30;5.60;;;10.50;99.90;;;;;;5032232;28;20025;-70
2023/04/01 07:37:34;;;;;;;8.18;5.30;;;10.50;99.90;;;;;;5031087;28;20036;-68
2023/04/01 07:40:14;;;;;;;9.25;5.03;;;10.50;99.90;;;;;;5032159;28;20022;-69
2023/04/01 07:43:01;;;;;;;7.57;4.85;;;10.50;99.90;;;;;;5032417;28;20025;-70
2023/04/01 07:46:11;;;;;;;10.35;4.95;;;10.50;99.90;;;;;;5031384;28;20030;-70
2023/04/01 07:49:03;;;;;;;11.40;5.28;;;10.50;99.90;;;;;;4998101;28;20128;-71
2023/04/01 07:51:54;;;;;;;8.77;4.72;;;10.50;99.90;;;;;;5042323;28;20030;-70
2023/04/01 07:54:39;;;;;;;8.50;4.80;;;10.60;99.90;;;;;;5027697;28;20041;-72
2023/04/01 07:57:34;;;;;;;7.90;4.60;;;10.60;99.90;;;;;;5028681;28;20033;-69
2023/04/01 08:00:15;;;;;;;8.00;4.82;;;10.50;99.90;;;;;;5030749;28;20124;-71
2023/04/01 08:02:59;;;;;;;8.20;4.95;;;10.50;99.90;;;;;;5027353;28;20131;-72
2023/04/01 08:05:59;;;;;;;9.52;5.40;;;10.50;99.90;;;;;;5028257;28;20036;-71
2023/04/01 08:08:42;;;;;;;6.55;4.35;;;10.50;99.90;;;;;;4998336;28;20057;-71
2023/04/01 08:11:25;;;;;;;8.35;5.38;;;10.50;99.90;;;;;;5030964;28;20025;-71
2023/04/01 08:13:56;;;;;;;7.32;4.72;;;10.50;99.90;;;;;;5028170;28;20425;-70
2023/04/01 08:16:41;;;;;;;6.35;4.47;;;10.60;99.90;;;;;;5027158;28;20533;-69
2023/04/01 08:19:21;;;;;;;9.38;4.53;;;10.60;99.90;;;;;;5028485;28;20434;-69
2023/04/01 08:21:54;;;;;;;6.47;4.63;;;10.60;99.90;;;;;;5028103;28;20484;-70
2023/04/01 08:24:42;;;;;;;8.05;4.63;;;10.70;99.90;;;;;;5031295;28;20406;-72
2023/04/01 08:27:22;;;;;;;8.32;5.57;;;10.70;99.90;;;;;;5031751;28;20065;-71
2023/04/01 08:30:23;;;;;;;7.78;4.30;;;10.70;99.90;;;;;;5031941;28;20024;-70
2023/04/01 08:33:10;;;;;;;6.25;3.65;;;10.80;99.90;;;;;;5032017;28;20024;-70
2023/04/01 08:36:01;;;;;;;6.10;3.45;;;10.90;99.90;;;;;;5029640;28;20089;-71
2023/04/01 08:38:44;;;;;;;7.20;2.92;;;10.80;99.90;;;;;;5031234;28;20028;-69
2023/04/01 08:41:33;;;;;;;6.07;2.88;;;10.80;99.90;;;;;;5029233;28;20017;-70
2023/04/01 08:44:38;;;;;;;3.38;2.60;;;10.70;99.90;;;;;;5031157;28;20041;-70
2023/04/01 08:47:19;;;;;;;4.75;2.38;;;10.70;99.90;;;;;;5028405;28;20094;-72
2023/04/01 08:50:14;;;;;;;3.50;2.22;;;10.80;99.90;;;;;;5030863;28;20033;-71
2023/04/01 08:53:03;;;;;;;2.97;2.40;;;10.80;99.90;;;;;;5028468;28;20025;-69
2023/04/01 08:55:38;;;;;;;4.38;1.90;;;11.00;99.90;;;;;;5028447;28;20502;-71
2023/04/01 08:58:47;;;;;;;5.07;2.08;;;11.10;99.90;;;;;;5033056;28;20033;-70
2023/04/01 09:01:43;;;;;;;5.30;1.75;;;11.20;99.90;;;;;;5028035;28;20022;-69
2023/04/01 09:04:27;;;;;;;2.13;1.60;;;11.20;99.90;;;;;;5033515;28;20072;-72
2023/04/01 09:07:11;;;;;;;3.67;1.70;;;11.20;99.90;;;;;;5033569;28;20025;-71
2023/04/01 09:10:09;;;;;;;2.70;1.77;;;11.20;99.90;;;;;;5032898;28;20563;-70
2023/04/01 09:12:52;;;;;;;4.25;1.70;;;11.20;99.90;;;;;;5030006;28;20034;-72
2023/04/01 09:15:48;;;;;;;4.87;2.50;;;11.20;99.90;;;;;;5032492;28;20030;-71
2023/04/01 09:18:22;;;;;;;9.93;2.90;;;11.10;99.90;;;;;;5030576;28;20029;-70
2023/04/01 09:21:03;;;;;;;6.00;3.78;;;11.10;99.90;;;;;;5031395;28;20022;-69
2023/04/01 09:23:48;;;;;;;3.33;2.50;;;11.10;99.90;;;;;;5034854;28;20044;-69
2023/04/01 09:26:35;;;;;;;3.08;2.42;;;10.90;99.90;;;;;;5035012;28;20022;-68
2023/04/01 09:29:44;;;;;;;3.55;2.25;;;10.70;99.90;;;;;;5034586;28;20109;-69
2023/04/01 09:32:27;;;;;;;4.15;1.67;;;10.50;99.90;;;;;;5032199;28;20033;-68
2023/04/01 09:34:54;;;;;;;1.55;1.25;;;10.40;99.90;;;;;;5031614;28;20034;-68
2023/04/01 09:37:40;;;;;;;1.17;0.85;;;10.20;99.90;;;;;;5030068;28;20025;-69
2023/04/01 09:40:09;;;;;;;0.68;0.60;;;10.20;99.90;;;;;;5031644;28;20034;-67
2023/04/01 09:43:16;;;;;;;1.88;0.73;;;10.10;99.90;;;;;;5034333;28;20151;-68
2023/04/01 09:45:55;;;;;;;1.20;0.90;;;9.90;99.90;;;;;;5029371;28;20058;-67
2023/04/01 09:48:43;;;;;;;1.40;1.17;;;9.90;99.90;;;;;;5033668;28;20029;-67
2023/04/01 09:51:45;;;;;;;2.78;1.42;;;9.80;99.90;;;;;;5025147;28;20037;-66
2023/04/01 09:54:18;;;;;;;1.75;1.23;;;9.80;99.90;;;;;;5030657;28;20029;-68
2023/04/01 09:57:08;;;;;;;2.22;1.27;;;9.70;99.90;;;;;;5032435;28;20048;-68
2023/04/01 09:59:47;;;;;;;2.25;0.80;;;9.60;99.90;;;;;;5029809;28;20034;-69
2023/04/01 10:02:37;;;;;;;2.03;0.90;;;9.50;99.90;;;;;;5033346;28;20041;-66
2023/04/01 10:05:42;;;;;;;0.70;0.52;;;9.50;99.90;;;;;;5033942;28;20038;-71
2023/04/01 10:08:29;;;;;;;0.90;0.70;;;9.50;99.90;;;;;;5030284;28;20164;-67
2023/04/01 10:11:16;;;;;;;0.85;0.60;;;9.50;99.90;;;;;;5033386;28;20025;-67
2023/04/01 10:14:00;;;;;;;0.75;0.55;;;9.60;99.90;;;;;;5033849;28;20030;-69
2023/04/01 10:16:42;;;;;;;;;;;9.60;99.90;;;;;;5034226;28;20040;-68
2023/04/01 10:19:18;;;;;;;0.88;0.50;;;9.60;99.90;;;;;;5030200;28;19940;-69
2023/04/01 10:22:05;;;;;;;1.13;0.70;;;9.60;99.90;;;;;;5033438;28;20029;-68
2023/04/01 10:24:55;;;;;;;1.52;0.80;;;9.50;99.90;;;;;;5033444;28;20116;-68
2023/04/01 10:27:30;;;;;;;0.63;0.60;;;9.40;99.90;;;;;;5033262;28;20025;-69
2023/04/01 10:30:18;;;;;;;0.68;0.50;;;9.40;99.90;;;;;;5032248;28;20026;-66
2023/04/01 10:33:06;;;;;;;4.63;0.80;;;9.30;99.90;;;;;;5033259;28;20022;-67
2023/04/01 10:36:01;;;;;;;0.70;0.70;;;9.30;99.90;;;;;;5033609;28;20033;-66
2023/04/01 10:39:11;;;;;;;0.88;0.60;;;9.30;99.90;;;;;;5015135;28;20114;-67
2023/04/01 10:42:02;;;;;;;2.38;0.75;;;9.30;99.90;;;;;;5033202;28;20029;-68
2023/04/01 10:45:05;;;;;;;1.67;0.70;;;9.30;99.90;;;;;;5030758;28;20044;-69
2023/04/01 10:48:05;;;;;;;3.03;1.50;;;9.30;99.90;;;;;;5031093;28;20030;-67
2023/04/01 10:50:39;;;;;;;2.00;1.52;;;9.40;99.90;;;;;;5033334;28;20030;-67
2023/04/01 10:53:23;;;;;;;1.92;1.55;;;9.40;99.90;;;;;;5031651;28;20033;-67
2023/04/01 10:56:03;;;;;;;1.85;0.82;;;9.40;99.90;;;;;;5031901;28;20775;-68
2023/04/01 10:58:40;;;;;;;0.70;0.70;;;9.40;99.90;;;;;;5031092;28;20032;-68
2023/04/01 11:01:15;;;;;;;1.30;0.75;;;9.40;99.90;;;;;;5031607;28;20049;-67
2023/04/01 11:03:46;;;;;;;0.80;0.70;;;9.30;99.90;;;;;;5030720;28;20457;-66
2023/04/01 11:06:31;;;;;;;6.22;1.20;;;9.20;99.90;;;;;;5029735;28;20029;-68
2023/04/01 11:09:08;;;;;;;;;;;9.20;99.90;;;;;;5021445;28;20364;-67
2023/04/01 11:12:06;;;;;;;1.27;1.08;;;9.10;99.90;;;;;;5029846;28;19913;-68
2023/04/01 11:14:44;;;;;;;1.52;1.13;;;9.00;99.90;;;;;;5029272;28;20030;-65
2023/04/01 11:17:18;;;;;;;2.00;1.13;;;8.90;99.90;;;;;;5027422;28;20041;-68
2023/04/01 11:20:19;;;;;;;1.75;1.10;;;8.90;99.90;;;;;;5028993;28;20045;-70
2023/04/01 11:23:06;;;;;;;1.50;1.02;;;8.90;99.90;;;;;;4976128;28;20081;-68
2023/04/01 11:25:53;;;;;;;2.58;1.10;;;8.80;99.90;;;;;;5027470;28;20093;-67
2023/04/01 11:28:40;;;;;;;1.50;1.20;;;8.90;99.90;;;;;;5030646;28;20038;-69
2023/04/01 11:31:29;;;;;;;1.02;0.90;;;8.90;99.90;;;;;;5030636;28;20030;-69
2023/04/01 11:34:18;;;;;;;2.30;1.20;;;8.90;99.90;;;;;;5031335;28;20101;-66
2023/04/01 11:36:49;;;;;;;1.73;1.10;;;8.90;99.90;;;;;;5029423;28;20398;-68
2023/04/01 11:39:23;;;;;;;2.58;1.10;;;8.90;99.90;;;;;;5032231;28;20037;-69
2023/04/01 11:42:17;;;;;;;2.05;1.15;;;8.90;99.90;;;;;;5030428;28;20030;-68
2023/04/01 11:45:11;;;;;;;1.67;1.00;;;9.00;99.90;;;;;;5029673;28;20439;-66
2023/04/01 11:48:02;;;;;;;1.33;0.98;;;9.00;99.90;;;;;;5032003;28;20049;-66
2023/04/01 11:50:42;;;;;;;1.00;0.90;;;8.90;99.90;;;;;;5029326;28;20222;-68
2023/04/01 11:53:30;;;;;;;1.83;1.00;;;8.90;99.90;;;;;;5031390;28;20018;-67
2023/04/01 11:56:14;;;;;;;1.60;0.90;;;8.90;99.90;;;;;;5031968;28;20040;-68
2023/04/01 11:59:20;;;;;;;2.08;1.20;;;8.90;99.90;;;;;;5030344;28;20381;-67
2023/04/01 12:02:23;;;;;;;2.78;1.30;;;8.90;99.90;;;;;;5032166;28;20093;-66
2023/04/01 12:05:08;;;;;;;0.95;0.70;;;8.90;99.90;;;;;;5030252;28;20050;-69
2023/04/01 12:07:52;;;;;;;1.70;1.10;;;8.90;99.90;;;;;;5031149;28;20073;-67
2023/04/01 12:10:24;;;;;;;1.27;0.80;;;8.90;99.90;;;;;;5031381;28;20116;-68
2023/04/01 12:13:05;;;;;;;1.95;0.90;;;8.80;99.90;;;;;;5031419;28;20574;-67
2023/04/01 12:15:48;;;;;;;1.40;0.90;;;8.90;99.90;;;;;;5031348;28;20029;-66
2023/04/01 12:18:24;;;;;;;3.05;1.10;;;8.80;99.90;;;;;;5031859;28;20029;-67
2023/04/01 12:21:06;;;;;;;1.77;1.15;;;8.80;99.90;;;;;;5031214;28;20124;-68
2023/04/01 12:23:50;;;;;;;1.23;0.90;;;8.80;99.90;;;;;;5031598;28;20042;-67
2023/04/01 12:26:44;;;;;;;1.92;1.10;;;8.80;99.90;;;;;;5031793;28;20033;-67
2023/04/01 12:29:40;;;;;;;1.85;1.15;;;8.70;99.90;;;;;;5027080;28;20058;-68
2023/04/01 12:32:40;;;;;;;1.90;1.08;;;8.70;99.90;;;;;;5029631;28;20030;-66
2023/04/01 12:35:22;;;;;;;1.17;1.05;;;8.60;99.90;;;;;;5033281;28;20057;-67
2023/04/01 12:38:27;;;;;;;1.63;1.00;;;8.60;99.90;;;;;;5034617;28;20031;-69
2023/04/01 12:41:19;;;;;;;2.08;1.10;;;8.70;99.90;;;;;;5031563;28;20045;-68
2023/04/01 12:44:09;;;;;;;1.23;1.05;;;8.60;99.90;;;;;;5034969;28;20037;-66
2023/04/01 12:46:35;;;;;;;1.65;1.00;;;8.70;99.90;;;;;;5035172;28;20506;-67
2023/04/01 12:49:09;;;;;;;2.00;0.90;;;8.70;99.90;;;;;;5032970;28;20049;-67
2023/04/01 12:52:02;;;;;;;2.63;1.30;;;8.70;99.90;;;;;;5034438;28;20033;-68
2023/04/01 12:54:59;;;;;;;1.20;1.00;;;8.70;99.90;;;;;;5034923;28;20112;-69
2023/04/01 12:57:46;;;;;;;2.85;1.00;;;8.70;99.90;;;;;;5033409;28;20085;-71
2023/04/01 13:00:39;;;;;;;1.08;0.70;;;8.80;99.90;;;;;;5050010;28;20034;-67
2023/04/01 13:03:49;;;;;;;1.25;0.70;;;8.80;99.90;;;;;;5032894;28;20039;-67
2023/04/01 13:06:51;;;;;;;1.90;0.88;;;8.80;99.90;;;;;;5022665;28;20049;-70
2023/04/01 13:09:38;;;;;;;1.10;1.00;;;8.90;99.90;;;;;;5029613;28;20056;-66
2023/04/01 13:12:04;;;;;;;1.70;1.13;;;8.80;99.90;;;;;;5032208;28;20037;-66
2023/04/01 13:14:44;;;;;;;2.30;1.23;;;8.80;99.90;;;;;;5034360;28;20029;-68
2023/04/01 13:17:28;;;;;;;2.30;2.00;;;8.80;99.90;;;;;;5033362;28;20438;-66
2023/04/01 13:20:11;;;;;;;2.87;2.50;;;8.90;99.90;;;;;;5030235;28;20092;-69
2023/04/01 13:22:46;;;;;;;2.28;1.80;;;8.80;99.90;;;;;;5032715;28;20145;-67
2023/04/01 13:25:27;;;;;;;2.08;1.73;;;8.80;99.90;;;;;;5028585;28;20037;-68
2023/04/01 13:28:23;;;;;;;3.00;1.40;;;8.70;99.90;;;;;;5030636;28;20040;-67
2023/04/01 13:31:15;;;;;;;1.85;1.15;;;8.60;99.90;;;;;;5034704;28;20026;-68
2023/04/01 13:33:44;;;;;;;3.03;1.60;;;8.60;99.90;;;;;;5034393;28;20056;-67
2023/04/01 13:36:26;;;;;;;3.25;2.35;;;8.60;99.90;;;;;;5031724;28;20042;-66
2023/04/01 13:39:13;;;;;;;3.05;2.60;;;8.60;99.90;;;;;;5032459;28;20075;-68